sensor_id;sensor_type;location;lat;lon;timestamp;temperature;humidity
68098;DHT22;54886;47.036;15.466;2024-01-30T00:00:54;-1.95;72.70
68098;DHT22;54886;47.036;15.466;2024-01-30T00:03:19;-1.97;72.41
68098;DHT22;54886;47.036;15.466;2024-01-30T00:05:44;-1.97;72.57
68098;DHT22;54886;47.036;15.466;2024-01-30T00:08:10;-1.99;72.60
68098;DHT22;54886;47.036;15.466;2024-01-30T00:10:35;-1.99;72.26
68098;DHT22;54886;47.036;15.466;2024-01-30T00:13:01;-2.06;73.17
68098;DHT22;54886;47.036;15.466;2024-01-30T00:15:27;-2.09;73.18
68098;DHT22;54886;47.036;15.466;2024-01-30T00:17:53;-2.09;73.22
68098;DHT22;54886;47.036;15.466;2024-01-30T00:20:18;-2.11;72.36
68098;DHT22;54886;47.036;15.466;2024-01-30T00:22:44;-2.16;72.46
68098;DHT22;54886;47.036;15.466;2024-01-30T00:25:09;-2.08;72.79
68098;DHT22;54886;47.036;15.466;2024-01-30T00:27:35;-2.13;72.92
68098;DHT22;54886;47.036;15.466;2024-01-30T00:30:00;-2.13;73.64
68098;DHT22;54886;47.036;15.466;2024-01-30T00:32:26;-2.18;73.17
68098;DHT22;54886;47.036;15.466;2024-01-30T00:34:51;-2.21;73.53
68098;DHT22;54886;47.036;15.466;2024-01-30T00:37:17;-2.23;73.74
68098;DHT22;54886;47.036;15.466;2024-01-30T00:39:42;-2.21;73.37
68098;DHT22;54886;47.036;15.466;2024-01-30T00:42:07;-2.21;73.46
68098;DHT22;54886;47.036;15.466;2024-01-30T00:44:35;-2.28;73.37
68098;DHT22;54886;47.036;15.466;2024-01-30T00:47:02;-2.30;73.45
68098;DHT22;54886;47.036;15.466;2024-01-30T00:49:28;-2.29;73.30
68098;DHT22;54886;47.036;15.466;2024-01-30T00:51:53;-2.35;73.78
68098;DHT22;54886;47.036;15.466;2024-01-30T00:54:19;-2.35;73.76
68098;DHT22;54886;47.036;15.466;2024-01-30T00:56:44;-2.30;73.96
68098;DHT22;54886;47.036;15.466;2024-01-30T00:59:11;-2.32;73.92
68098;DHT22;54886;47.036;15.466;2024-01-30T01:01:36;-2.29;73.83
68098;DHT22;54886;47.036;15.466;2024-01-30T01:04:01;-2.32;73.74
68098;DHT22;54886;47.036;15.466;2024-01-30T01:06:27;-2.40;74.10
68098;DHT22;54886;47.036;15.466;2024-01-30T01:08:52;-2.39;73.73
68098;DHT22;54886;47.036;15.466;2024-01-30T01:11:18;-2.39;73.63
68098;DHT22;54886;47.036;15.466;2024-01-30T01:13:43;-2.39;73.65
68098;DHT22;54886;47.036;15.466;2024-01-30T01:16:09;-2.45;74.00
68098;DHT22;54886;47.036;15.466;2024-01-30T01:18:34;-2.40;73.78
68098;DHT22;54886;47.036;15.466;2024-01-30T01:20:59;-2.42;73.76
68098;DHT22;54886;47.036;15.466;2024-01-30T01:23:25;-2.40;73.70
68098;DHT22;54886;47.036;15.466;2024-01-30T01:25:51;-2.40;73.92
68098;DHT22;54886;47.036;15.466;2024-01-30T01:28:16;-2.42;73.90
68098;DHT22;54886;47.036;15.466;2024-01-30T01:30:42;-2.46;74.43
68098;DHT22;54886;47.036;15.466;2024-01-30T01:33:07;-2.50;74.68
68098;DHT22;54886;47.036;15.466;2024-01-30T01:35:33;-2.56;74.27
68098;DHT22;54886;47.036;15.466;2024-01-30T01:37:58;-2.61;74.28
68098;DHT22;54886;47.036;15.466;2024-01-30T01:40:26;-2.58;74.17
68098;DHT22;54886;47.036;15.466;2024-01-30T01:42:52;-2.57;73.97
68098;DHT22;54886;47.036;15.466;2024-01-30T01:45:19;-2.53;73.66
68098;DHT22;54886;47.036;15.466;2024-01-30T01:47:47;-2.64;74.14
68098;DHT22;54886;47.036;15.466;2024-01-30T01:50:15;-2.64;74.11
68098;DHT22;54886;47.036;15.466;2024-01-30T01:52:44;-2.67;73.83
68098;DHT22;54886;47.036;15.466;2024-01-30T01:55:10;-2.67;73.75
68098;DHT22;54886;47.036;15.466;2024-01-30T01:57:36;-2.77;73.91
68098;DHT22;54886;47.036;15.466;2024-01-30T02:00:02;-2.81;74.10
68098;DHT22;54886;47.036;15.466;2024-01-30T02:02:30;-2.85;74.33
68098;DHT22;54886;47.036;15.466;2024-01-30T02:05:00;-2.85;74.32
68098;DHT22;54886;47.036;15.466;2024-01-30T02:07:27;-2.89;73.65
68098;DHT22;54886;47.036;15.466;2024-01-30T02:09:53;-2.91;74.21
68098;DHT22;54886;47.036;15.466;2024-01-30T02:12:18;-2.92;73.97
68098;DHT22;54886;47.036;15.466;2024-01-30T02:14:47;-2.95;74.16
68098;DHT22;54886;47.036;15.466;2024-01-30T02:17:13;-2.92;74.32
68098;DHT22;54886;47.036;15.466;2024-01-30T02:19:39;-2.95;74.24
68098;DHT22;54886;47.036;15.466;2024-01-30T02:22:05;-2.98;74.71
68098;DHT22;54886;47.036;15.466;2024-01-30T02:24:30;-2.96;75.10
68098;DHT22;54886;47.036;15.466;2024-01-30T02:26:56;-2.98;74.42
68098;DHT22;54886;47.036;15.466;2024-01-30T02:29:21;-3.04;74.43
68098;DHT22;54886;47.036;15.466;2024-01-30T02:31:47;-3.09;74.70
68098;DHT22;54886;47.036;15.466;2024-01-30T02:34:12;-3.09;75.20
68098;DHT22;54886;47.036;15.466;2024-01-30T02:36:38;-3.09;75.26
68098;DHT22;54886;47.036;15.466;2024-01-30T02:39:03;-3.09;75.00
68098;DHT22;54886;47.036;15.466;2024-01-30T02:41:29;-3.12;74.87
68098;DHT22;54886;47.036;15.466;2024-01-30T02:43:54;-3.17;75.43
68098;DHT22;54886;47.036;15.466;2024-01-30T02:46:19;-3.17;75.49
68098;DHT22;54886;47.036;15.466;2024-01-30T02:48:45;-3.17;75.60
68098;DHT22;54886;47.036;15.466;2024-01-30T02:51:10;-3.11;75.12
68098;DHT22;54886;47.036;15.466;2024-01-30T02:53:36;-3.19;75.13
68098;DHT22;54886;47.036;15.466;2024-01-30T02:56:02;-3.23;75.47
68098;DHT22;54886;47.036;15.466;2024-01-30T02:58:28;-3.23;75.40
68098;DHT22;54886;47.036;15.466;2024-01-30T03:00:53;-3.24;74.91
68098;DHT22;54886;47.036;15.466;2024-01-30T03:03:19;-3.17;74.65
68098;DHT22;54886;47.036;15.466;2024-01-30T03:05:44;-3.15;74.70
68098;DHT22;54886;47.036;15.466;2024-01-30T03:08:10;-3.13;74.88
68098;DHT22;54886;47.036;15.466;2024-01-30T03:10:35;-3.15;75.16
68098;DHT22;54886;47.036;15.466;2024-01-30T03:13:00;-3.20;75.15
68098;DHT22;54886;47.036;15.466;2024-01-30T03:15:26;-3.19;75.15
68098;DHT22;54886;47.036;15.466;2024-01-30T03:17:52;-3.19;75.12
68098;DHT22;54886;47.036;15.466;2024-01-30T03:20:18;-3.23;75.26
68098;DHT22;54886;47.036;15.466;2024-01-30T03:22:43;-3.28;75.22
68098;DHT22;54886;47.036;15.466;2024-01-30T03:25:09;-3.26;75.26
68098;DHT22;54886;47.036;15.466;2024-01-30T03:27:34;-3.24;75.08
68098;DHT22;54886;47.036;15.466;2024-01-30T03:29:59;-3.33;75.48
68098;DHT22;54886;47.036;15.466;2024-01-30T03:32:25;-3.35;75.14
68098;DHT22;54886;47.036;15.466;2024-01-30T03:34:50;-3.38;75.79
68098;DHT22;54886;47.036;15.466;2024-01-30T03:37:15;-3.42;75.50
68098;DHT22;54886;47.036;15.466;2024-01-30T03:39:41;-3.43;75.06
68098;DHT22;54886;47.036;15.466;2024-01-30T03:42:06;-3.44;74.97
68098;DHT22;54886;47.036;15.466;2024-01-30T03:44:32;-3.47;75.02
68098;DHT22;54886;47.036;15.466;2024-01-30T03:46:57;-3.53;75.04
68098;DHT22;54886;47.036;15.466;2024-01-30T03:49:22;-3.54;75.07
68098;DHT22;54886;47.036;15.466;2024-01-30T03:51:48;-3.54;74.75
68098;DHT22;54886;47.036;15.466;2024-01-30T03:54:13;-3.54;74.61
68098;DHT22;54886;47.036;15.466;2024-01-30T03:56:38;-3.57;74.99
68098;DHT22;54886;47.036;15.466;2024-01-30T03:59:04;-3.60;75.02
68098;DHT22;54886;47.036;15.466;2024-01-30T04:01:29;-3.63;74.92
68098;DHT22;54886;47.036;15.466;2024-01-30T04:03:54;-3.67;75.06
68098;DHT22;54886;47.036;15.466;2024-01-30T04:06:20;-3.78;75.27
68098;DHT22;54886;47.036;15.466;2024-01-30T04:08:45;-3.74;75.25
68098;DHT22;54886;47.036;15.466;2024-01-30T04:11:10;-3.73;75.19
68098;DHT22;54886;47.036;15.466;2024-01-30T04:13:36;-3.70;75.10
68098;DHT22;54886;47.036;15.466;2024-01-30T04:16:02;-3.73;75.11
68098;DHT22;54886;47.036;15.466;2024-01-30T04:18:28;-3.75;75.14
68098;DHT22;54886;47.036;15.466;2024-01-30T04:20:53;-3.73;75.11
68098;DHT22;54886;47.036;15.466;2024-01-30T04:23:19;-3.81;75.29
68098;DHT22;54886;47.036;15.466;2024-01-30T04:25:44;-3.82;75.57
68098;DHT22;54886;47.036;15.466;2024-01-30T04:28:10;-3.78;75.67
68098;DHT22;54886;47.036;15.466;2024-01-30T04:30:37;-3.77;75.22
68098;DHT22;54886;47.036;15.466;2024-01-30T04:33:03;-3.79;75.62
68098;DHT22;54886;47.036;15.466;2024-01-30T04:35:28;-3.84;75.90
68098;DHT22;54886;47.036;15.466;2024-01-30T04:37:54;-3.84;75.59
68098;DHT22;54886;47.036;15.466;2024-01-30T04:40:20;-3.84;75.39
68098;DHT22;54886;47.036;15.466;2024-01-30T04:42:46;-3.84;75.17
68098;DHT22;54886;47.036;15.466;2024-01-30T04:45:12;-3.88;75.60
68098;DHT22;54886;47.036;15.466;2024-01-30T04:47:38;-3.91;75.16
68098;DHT22;54886;47.036;15.466;2024-01-30T04:50:06;-3.91;75.35
68098;DHT22;54886;47.036;15.466;2024-01-30T04:52:32;-3.84;74.96
68098;DHT22;54886;47.036;15.466;2024-01-30T04:54:57;-3.82;75.16
68098;DHT22;54886;47.036;15.466;2024-01-30T04:57:22;-3.88;75.43
68098;DHT22;54886;47.036;15.466;2024-01-30T04:59:48;-3.94;75.50
68098;DHT22;54886;47.036;15.466;2024-01-30T05:02:13;-3.88;74.89
68098;DHT22;54886;47.036;15.466;2024-01-30T05:04:40;-3.92;75.35
68098;DHT22;54886;47.036;15.466;2024-01-30T05:07:06;-3.95;75.16
68098;DHT22;54886;47.036;15.466;2024-01-30T05:09:31;-4.01;75.21
68098;DHT22;54886;47.036;15.466;2024-01-30T05:11:57;-3.99;75.18
68098;DHT22;54886;47.036;15.466;2024-01-30T05:14:23;-3.98;75.05
68098;DHT22;54886;47.036;15.466;2024-01-30T05:16:48;-4.05;75.30
68098;DHT22;54886;47.036;15.466;2024-01-30T05:19:14;-4.05;75.16
68098;DHT22;54886;47.036;15.466;2024-01-30T05:21:39;-4.12;75.52
68098;DHT22;54886;47.036;15.466;2024-01-30T05:24:05;-4.09;75.37
68098;DHT22;54886;47.036;15.466;2024-01-30T05:26:30;-4.05;75.46
68098;DHT22;54886;47.036;15.466;2024-01-30T05:28:56;-4.07;75.70
68098;DHT22;54886;47.036;15.466;2024-01-30T05:31:22;-4.09;75.72
68098;DHT22;54886;47.036;15.466;2024-01-30T05:33:47;-4.15;75.94
68098;DHT22;54886;47.036;15.466;2024-01-30T05:36:13;-4.12;75.62
68098;DHT22;54886;47.036;15.466;2024-01-30T05:38:38;-4.15;75.74
68098;DHT22;54886;47.036;15.466;2024-01-30T05:41:04;-4.12;75.46
68098;DHT22;54886;47.036;15.466;2024-01-30T05:43:29;-4.12;75.87
68098;DHT22;54886;47.036;15.466;2024-01-30T05:45:54;-4.15;75.94
68098;DHT22;54886;47.036;15.466;2024-01-30T05:48:20;-4.16;75.75
68098;DHT22;54886;47.036;15.466;2024-01-30T05:50:46;-4.06;75.49
68098;DHT22;54886;47.036;15.466;2024-01-30T05:53:11;-4.06;75.50
68098;DHT22;54886;47.036;15.466;2024-01-30T05:55:37;-4.10;75.60
68098;DHT22;54886;47.036;15.466;2024-01-30T05:58:02;-4.07;75.57
68098;DHT22;54886;47.036;15.466;2024-01-30T06:00:29;-4.09;75.43
68098;DHT22;54886;47.036;15.466;2024-01-30T06:02:54;-4.06;75.73
68098;DHT22;54886;47.036;15.466;2024-01-30T06:05:19;-4.07;75.55
68098;DHT22;54886;47.036;15.466;2024-01-30T06:07:45;-4.10;75.44
68098;DHT22;54886;47.036;15.466;2024-01-30T06:10:10;-4.15;75.60
68098;DHT22;54886;47.036;15.466;2024-01-30T06:12:36;-4.17;75.95
68098;DHT22;54886;47.036;15.466;2024-01-30T06:15:01;-4.17;75.18
68098;DHT22;54886;47.036;15.466;2024-01-30T06:17:28;-4.24;75.45
68098;DHT22;54886;47.036;15.466;2024-01-30T06:19:53;-4.23;75.46
68098;DHT22;54886;47.036;15.466;2024-01-30T06:22:18;-4.20;75.57
68098;DHT22;54886;47.036;15.466;2024-01-30T06:24:45;-4.24;76.10
68098;DHT22;54886;47.036;15.466;2024-01-30T06:27:10;-4.24;76.29
68098;DHT22;54886;47.036;15.466;2024-01-30T06:29:36;-4.24;76.81
68098;DHT22;54886;47.036;15.466;2024-01-30T06:32:01;-4.23;76.85
68098;DHT22;54886;47.036;15.466;2024-01-30T06:34:27;-4.27;76.15
68098;DHT22;54886;47.036;15.466;2024-01-30T06:36:52;-4.23;76.04
68098;DHT22;54886;47.036;15.466;2024-01-30T06:39:17;-4.24;77.25
68098;DHT22;54886;47.036;15.466;2024-01-30T06:41:43;-4.22;76.09
68098;DHT22;54886;47.036;15.466;2024-01-30T06:44:09;-4.23;76.43
68098;DHT22;54886;47.036;15.466;2024-01-30T06:46:35;-4.27;76.57
68098;DHT22;54886;47.036;15.466;2024-01-30T06:49:00;-4.23;76.12
68098;DHT22;54886;47.036;15.466;2024-01-30T06:51:26;-4.24;76.18
68098;DHT22;54886;47.036;15.466;2024-01-30T06:53:52;-4.20;76.14
68098;DHT22;54886;47.036;15.466;2024-01-30T06:56:17;-4.16;75.96
68098;DHT22;54886;47.036;15.466;2024-01-30T06:58:49;-4.15;76.02
68098;DHT22;54886;47.036;15.466;2024-01-30T07:01:15;-4.19;76.11
68098;DHT22;54886;47.036;15.466;2024-01-30T07:03:41;-4.16;76.76
68098;DHT22;54886;47.036;15.466;2024-01-30T07:06:07;-4.16;76.53
68098;DHT22;54886;47.036;15.466;2024-01-30T07:08:33;-4.16;76.97
68098;DHT22;54886;47.036;15.466;2024-01-30T07:10:58;-4.15;77.72
68098;DHT22;54886;47.036;15.466;2024-01-30T07:13:24;-4.09;77.14
68098;DHT22;54886;47.036;15.466;2024-01-30T07:15:50;-4.06;77.56
68098;DHT22;54886;47.036;15.466;2024-01-30T07:18:15;-4.07;78.78
68098;DHT22;54886;47.036;15.466;2024-01-30T07:20:40;-4.03;77.02
68098;DHT22;54886;47.036;15.466;2024-01-30T07:23:15;-4.01;76.86
68098;DHT22;54886;47.036;15.466;2024-01-30T07:25:42;-3.98;76.86
68098;DHT22;54886;47.036;15.466;2024-01-30T07:28:08;-3.95;77.31
68098;DHT22;54886;47.036;15.466;2024-01-30T07:30:37;-3.92;78.43
68098;DHT22;54886;47.036;15.466;2024-01-30T07:33:03;-3.91;79.15
68098;DHT22;54886;47.036;15.466;2024-01-30T07:35:29;-3.85;79.40
68098;DHT22;54886;47.036;15.466;2024-01-30T07:37:54;-3.82;79.71
68098;DHT22;54886;47.036;15.466;2024-01-30T07:40:20;-3.79;78.46
68098;DHT22;54886;47.036;15.466;2024-01-30T07:42:45;-3.78;80.27
68098;DHT22;54886;47.036;15.466;2024-01-30T07:45:11;-3.75;79.11
68098;DHT22;54886;47.036;15.466;2024-01-30T07:47:36;-3.71;79.27
68098;DHT22;54886;47.036;15.466;2024-01-30T07:50:01;-3.66;78.88
68098;DHT22;54886;47.036;15.466;2024-01-30T07:52:27;-3.61;78.78
68098;DHT22;54886;47.036;15.466;2024-01-30T07:58:13;-3.53;80.11
68098;DHT22;54886;47.036;15.466;2024-01-30T08:00:39;-3.46;80.15
68098;DHT22;54886;47.036;15.466;2024-01-30T08:03:04;-3.40;81.48
68098;DHT22;54886;47.036;15.466;2024-01-30T08:05:30;-3.38;81.04
68098;DHT22;54886;47.036;15.466;2024-01-30T08:07:56;-3.32;79.98
68098;DHT22;54886;47.036;15.466;2024-01-30T08:10:21;-3.28;81.15
68098;DHT22;54886;47.036;15.466;2024-01-30T08:12:46;-3.28;81.29
68098;DHT22;54886;47.036;15.466;2024-01-30T08:15:12;-3.17;81.29
68098;DHT22;54886;47.036;15.466;2024-01-30T08:17:38;-3.11;81.58
68098;DHT22;54886;47.036;15.466;2024-01-30T08:20:04;-3.06;81.15
68098;DHT22;54886;47.036;15.466;2024-01-30T08:22:30;-2.99;81.89
68098;DHT22;54886;47.036;15.466;2024-01-30T08:24:55;-2.96;81.95
68098;DHT22;54886;47.036;15.466;2024-01-30T08:27:21;-2.89;81.64
68098;DHT22;54886;47.036;15.466;2024-01-30T08:29:46;-2.87;80.75
68098;DHT22;54886;47.036;15.466;2024-01-30T08:32:11;-2.81;80.59
68098;DHT22;54886;47.036;15.466;2024-01-30T08:34:37;-2.75;81.06
68098;DHT22;54886;47.036;15.466;2024-01-30T08:37:02;-2.68;80.90
68098;DHT22;54886;47.036;15.466;2024-01-30T08:39:28;-2.70;79.84
68098;DHT22;54886;47.036;15.466;2024-01-30T08:41:53;-2.63;80.23
68098;DHT22;54886;47.036;15.466;2024-01-30T08:44:19;-2.56;80.54
68098;DHT22;54886;47.036;15.466;2024-01-30T08:46:44;-2.54;79.81
68098;DHT22;54886;47.036;15.466;2024-01-30T08:49:11;-2.47;80.09
68098;DHT22;54886;47.036;15.466;2024-01-30T08:51:38;-2.42;80.26
68098;DHT22;54886;47.036;15.466;2024-01-30T08:54:04;-2.35;80.02
68098;DHT22;54886;47.036;15.466;2024-01-30T08:56:29;-2.30;80.16
68098;DHT22;54886;47.036;15.466;2024-01-30T08:58:54;-2.23;80.51
68098;DHT22;54886;47.036;15.466;2024-01-30T09:01:20;-2.19;80.31
68098;DHT22;54886;47.036;15.466;2024-01-30T09:03:45;-2.15;80.69
68098;DHT22;54886;47.036;15.466;2024-01-30T09:06:12;-2.06;80.47
68098;DHT22;54886;47.036;15.466;2024-01-30T09:08:38;-1.95;80.45
68098;DHT22;54886;47.036;15.466;2024-01-30T09:11:13;-1.93;80.05
68098;DHT22;54886;47.036;15.466;2024-01-30T09:13:39;-1.87;80.40
68098;DHT22;54886;47.036;15.466;2024-01-30T09:16:05;-1.77;80.11
68098;DHT22;54886;47.036;15.466;2024-01-30T09:18:31;-1.73;79.81
68098;DHT22;54886;47.036;15.466;2024-01-30T09:20:56;-1.67;79.96
68098;DHT22;54886;47.036;15.466;2024-01-30T09:23:22;-1.64;79.55
68098;DHT22;54886;47.036;15.466;2024-01-30T09:25:47;-1.60;79.80
68098;DHT22;54886;47.036;15.466;2024-01-30T09:28:13;-1.50;79.63
68098;DHT22;54886;47.036;15.466;2024-01-30T09:30:38;-1.47;79.09
68098;DHT22;54886;47.036;15.466;2024-01-30T09:33:04;-1.36;79.96
68098;DHT22;54886;47.036;15.466;2024-01-30T09:35:30;-1.32;79.41
68098;DHT22;54886;47.036;15.466;2024-01-30T09:37:55;-1.22;80.03
68098;DHT22;54886;47.036;15.466;2024-01-30T09:40:22;-1.18;79.20
68098;DHT22;54886;47.036;15.466;2024-01-30T09:42:47;-1.11;79.14
68098;DHT22;54886;47.036;15.466;2024-01-30T09:45:15;-1.02;79.46
68098;DHT22;54886;47.036;15.466;2024-01-30T09:47:43;-0.94;78.80
68098;DHT22;54886;47.036;15.466;2024-01-30T09:50:13;-0.87;79.03
68098;DHT22;54886;47.036;15.466;2024-01-30T09:52:39;-0.81;78.79
68098;DHT22;54886;47.036;15.466;2024-01-30T09:55:06;-0.77;78.26
68098;DHT22;54886;47.036;15.466;2024-01-30T09:57:32;-0.67;78.58
68098;DHT22;54886;47.036;15.466;2024-01-30T09:59:57;-0.64;78.19
68098;DHT22;54886;47.036;15.466;2024-01-30T10:02:23;-0.59;78.07
68098;DHT22;54886;47.036;15.466;2024-01-30T10:04:50;-0.56;77.49
68098;DHT22;54886;47.036;15.466;2024-01-30T10:07:16;-0.50;77.36
68098;DHT22;54886;47.036;15.466;2024-01-30T10:09:42;-0.42;77.72
68098;DHT22;54886;47.036;15.466;2024-01-30T10:12:08;-0.36;77.35
68098;DHT22;54886;47.036;15.466;2024-01-30T10:14:37;-0.29;77.20
68098;DHT22;54886;47.036;15.466;2024-01-30T10:17:03;-0.25;76.95
68098;DHT22;54886;47.036;15.466;2024-01-30T10:19:28;-0.23;76.72
68098;DHT22;54886;47.036;15.466;2024-01-30T10:21:53;-0.15;76.86
68098;DHT22;54886;47.036;15.466;2024-01-30T10:24:23;-0.10;76.62
68098;DHT22;54886;47.036;15.466;2024-01-30T10:26:49;0.00;76.53
68098;DHT22;54886;47.036;15.466;2024-01-30T10:29:14;0.10;76.51
68098;DHT22;54886;47.036;15.466;2024-01-30T10:31:40;0.17;76.28
68098;DHT22;54886;47.036;15.466;2024-01-30T10:34:05;0.20;75.86
68098;DHT22;54886;47.036;15.466;2024-01-30T10:36:39;0.27;75.49
68098;DHT22;54886;47.036;15.466;2024-01-30T10:39:07;0.36;75.77
68098;DHT22;54886;47.036;15.466;2024-01-30T10:41:39;0.38;75.33
68098;DHT22;54886;47.036;15.466;2024-01-30T10:44:10;0.43;75.11
68098;DHT22;54886;47.036;15.466;2024-01-30T10:46:38;0.48;74.72
68098;DHT22;54886;47.036;15.466;2024-01-30T10:49:04;0.57;74.65
68098;DHT22;54886;47.036;15.466;2024-01-30T10:51:31;0.62;74.96
68098;DHT22;54886;47.036;15.466;2024-01-30T10:53:57;0.66;74.63
68098;DHT22;54886;47.036;15.466;2024-01-30T10:56:24;0.75;74.96
68098;DHT22;54886;47.036;15.466;2024-01-30T10:58:53;0.79;74.74
68098;DHT22;54886;47.036;15.466;2024-01-30T11:01:20;0.89;74.74
68098;DHT22;54886;47.036;15.466;2024-01-30T11:03:49;0.93;74.86
68098;DHT22;54886;47.036;15.466;2024-01-30T11:06:15;1.00;74.69
68098;DHT22;54886;47.036;15.466;2024-01-30T11:08:44;1.09;74.33
68098;DHT22;54886;47.036;15.466;2024-01-30T11:11:10;1.13;73.77
68098;DHT22;54886;47.036;15.466;2024-01-30T11:13:35;1.15;73.95
68098;DHT22;54886;47.036;15.466;2024-01-30T11:16:02;1.27;73.83
68098;DHT22;54886;47.036;15.466;2024-01-30T11:18:31;1.34;73.42
68098;DHT22;54886;47.036;15.466;2024-01-30T11:21:01;1.45;73.26
68098;DHT22;54886;47.036;15.466;2024-01-30T11:23:30;1.51;73.07
68098;DHT22;54886;47.036;15.466;2024-01-30T11:25:58;1.56;73.44
68098;DHT22;54886;47.036;15.466;2024-01-30T11:28:23;1.62;72.86
68098;DHT22;54886;47.036;15.466;2024-01-30T11:30:49;1.68;72.37
68098;DHT22;54886;47.036;15.466;2024-01-30T11:33:29;1.74;72.72
68098;DHT22;54886;47.036;15.466;2024-01-30T11:35:56;1.78;72.44
68098;DHT22;54886;47.036;15.466;2024-01-30T11:38:22;1.85;72.54
68098;DHT22;54886;47.036;15.466;2024-01-30T11:40:48;1.87;72.11
68098;DHT22;54886;47.036;15.466;2024-01-30T11:43:13;1.93;72.15
68098;DHT22;54886;47.036;15.466;2024-01-30T11:45:39;1.98;71.44
68098;DHT22;54886;47.036;15.466;2024-01-30T11:48:05;2.00;71.31
68098;DHT22;54886;47.036;15.466;2024-01-30T11:50:33;2.05;71.05
68098;DHT22;54886;47.036;15.466;2024-01-30T11:53:02;2.17;70.81
68098;DHT22;54886;47.036;15.466;2024-01-30T11:55:29;2.26;70.44
68098;DHT22;54886;47.036;15.466;2024-01-30T11:57:59;2.27;70.17
68098;DHT22;54886;47.036;15.466;2024-01-30T12:00:25;2.33;70.46
68098;DHT22;54886;47.036;15.466;2024-01-30T12:02:52;2.34;70.19
68098;DHT22;54886;47.036;15.466;2024-01-30T12:05:21;2.40;69.88
68098;DHT22;54886;47.036;15.466;2024-01-30T12:07:48;2.40;69.77
68098;DHT22;54886;47.036;15.466;2024-01-30T12:10:13;2.42;69.96
68098;DHT22;54886;47.036;15.466;2024-01-30T12:12:39;2.52;69.48
68098;DHT22;54886;47.036;15.466;2024-01-30T12:15:06;2.52;69.32
68098;DHT22;54886;47.036;15.466;2024-01-30T12:17:33;2.65;69.32
68098;DHT22;54886;47.036;15.466;2024-01-30T12:20:13;2.69;68.38
68098;DHT22;54886;47.036;15.466;2024-01-30T12:22:41;2.71;68.39
68098;DHT22;54886;47.036;15.466;2024-01-30T12:25:20;2.76;68.35
68098;DHT22;54886;47.036;15.466;2024-01-30T12:27:47;2.82;68.77
68098;DHT22;54886;47.036;15.466;2024-01-30T12:30:16;2.83;68.42
68098;DHT22;54886;47.036;15.466;2024-01-30T12:32:44;2.83;68.42
68098;DHT22;54886;47.036;15.466;2024-01-30T12:35:14;2.92;68.36
68098;DHT22;54886;47.036;15.466;2024-01-30T12:37:40;2.92;68.20
68098;DHT22;54886;47.036;15.466;2024-01-30T12:40:07;2.93;67.78
68098;DHT22;54886;47.036;15.466;2024-01-30T12:42:33;2.96;68.55
68098;DHT22;54886;47.036;15.466;2024-01-30T12:44:58;3.00;67.89
68098;DHT22;54886;47.036;15.466;2024-01-30T12:47:24;3.02;67.92
68098;DHT22;54886;47.036;15.466;2024-01-30T12:49:50;3.04;68.51
68098;DHT22;54886;47.036;15.466;2024-01-30T12:52:19;3.09;68.65
68098;DHT22;54886;47.036;15.466;2024-01-30T12:54:44;3.10;68.47
68098;DHT22;54886;47.036;15.466;2024-01-30T12:57:10;3.17;68.70
68098;DHT22;54886;47.036;15.466;2024-01-30T12:59:35;3.19;68.97
68098;DHT22;54886;47.036;15.466;2024-01-30T13:02:01;3.27;68.83
68098;DHT22;54886;47.036;15.466;2024-01-30T13:04:28;3.32;68.65
68098;DHT22;54886;47.036;15.466;2024-01-30T13:06:54;3.34;69.23
68098;DHT22;54886;47.036;15.466;2024-01-30T13:09:19;3.48;68.06
68098;DHT22;54886;47.036;15.466;2024-01-30T13:11:45;3.50;68.35
68098;DHT22;54886;47.036;15.466;2024-01-30T13:14:11;3.50;68.20
68098;DHT22;54886;47.036;15.466;2024-01-30T13:16:36;3.51;68.32
68098;DHT22;54886;47.036;15.466;2024-01-30T13:19:02;3.54;68.05
68098;DHT22;54886;47.036;15.466;2024-01-30T13:21:28;3.62;67.91
68098;DHT22;54886;47.036;15.466;2024-01-30T13:23:54;3.68;67.45
68098;DHT22;54886;47.036;15.466;2024-01-30T13:26:20;3.71;67.76
68098;DHT22;54886;47.036;15.466;2024-01-30T13:28:46;3.75;67.56
68098;DHT22;54886;47.036;15.466;2024-01-30T13:31:12;3.79;67.05
68098;DHT22;54886;47.036;15.466;2024-01-30T13:33:37;3.81;67.19
68098;DHT22;54886;47.036;15.466;2024-01-30T13:36:03;3.92;66.60
68098;DHT22;54886;47.036;15.466;2024-01-30T13:38:28;3.90;66.94
68098;DHT22;54886;47.036;15.466;2024-01-30T13:40:53;3.85;67.14
68098;DHT22;54886;47.036;15.466;2024-01-30T13:43:19;3.86;67.04
68098;DHT22;54886;47.036;15.466;2024-01-30T13:45:44;3.87;66.98
68098;DHT22;54886;47.036;15.466;2024-01-30T13:48:11;3.94;67.00
68098;DHT22;54886;47.036;15.466;2024-01-30T13:50:36;3.93;67.04
68098;DHT22;54886;47.036;15.466;2024-01-30T13:53:02;3.92;67.19
68098;DHT22;54886;47.036;15.466;2024-01-30T13:55:29;3.93;67.00
68098;DHT22;54886;47.036;15.466;2024-01-30T13:57:55;3.93;66.79
68098;DHT22;54886;47.036;15.466;2024-01-30T14:00:21;3.97;66.86
68098;DHT22;54886;47.036;15.466;2024-01-30T14:02:47;4.00;66.61
68098;DHT22;54886;47.036;15.466;2024-01-30T14:05:13;4.06;66.32
68098;DHT22;54886;47.036;15.466;2024-01-30T14:07:39;4.07;66.14
68098;DHT22;54886;47.036;15.466;2024-01-30T14:10:06;4.06;66.22
68098;DHT22;54886;47.036;15.466;2024-01-30T14:12:31;4.09;66.31
68098;DHT22;54886;47.036;15.466;2024-01-30T14:14:56;4.14;65.64
68098;DHT22;54886;47.036;15.466;2024-01-30T14:17:22;4.10;65.99
68098;DHT22;54886;47.036;15.466;2024-01-30T14:19:47;4.13;65.62
68098;DHT22;54886;47.036;15.466;2024-01-30T14:22:13;4.17;65.05
68098;DHT22;54886;47.036;15.466;2024-01-30T14:24:38;4.16;64.51
68098;DHT22;54886;47.036;15.466;2024-01-30T14:27:04;4.17;64.54
68098;DHT22;54886;47.036;15.466;2024-01-30T14:29:29;4.17;63.70
68098;DHT22;54886;47.036;15.466;2024-01-30T14:31:55;4.16;64.32
68098;DHT22;54886;47.036;15.466;2024-01-30T14:34:21;4.13;64.64
68098;DHT22;54886;47.036;15.466;2024-01-30T14:36:46;4.13;64.49
68098;DHT22;54886;47.036;15.466;2024-01-30T14:39:12;4.09;64.92
68098;DHT22;54886;47.036;15.466;2024-01-30T14:41:37;4.11;64.63
68098;DHT22;54886;47.036;15.466;2024-01-30T14:44:02;4.07;64.73
68098;DHT22;54886;47.036;15.466;2024-01-30T14:46:28;4.10;64.90
68098;DHT22;54886;47.036;15.466;2024-01-30T14:48:53;4.11;65.09
68098;DHT22;54886;47.036;15.466;2024-01-30T14:51:19;4.09;65.29
68098;DHT22;54886;47.036;15.466;2024-01-30T14:53:45;4.09;64.79
68098;DHT22;54886;47.036;15.466;2024-01-30T14:56:10;4.06;65.45
68098;DHT22;54886;47.036;15.466;2024-01-30T14:58:37;4.03;65.21
68098;DHT22;54886;47.036;15.466;2024-01-30T15:01:03;4.04;65.35
68098;DHT22;54886;47.036;15.466;2024-01-30T15:03:28;4.00;65.47
68098;DHT22;54886;47.036;15.466;2024-01-30T15:05:54;3.99;65.44
68098;DHT22;54886;47.036;15.466;2024-01-30T15:08:20;3.96;65.43
68098;DHT22;54886;47.036;15.466;2024-01-30T15:10:46;3.96;65.60
68098;DHT22;54886;47.036;15.466;2024-01-30T15:13:12;3.96;65.58
68098;DHT22;54886;47.036;15.466;2024-01-30T15:15:37;3.94;65.59